Latest Weather Observations for Central Arnhem Plateau

IDD60801

Issued at 2:21 pm CST Monday 23 September 2019 (issued every 10 minutes, with the page automatically refreshed every 10 minutes)

About weather observations | Map of weather stations | Latest weather observations for NT | Other Formats
Station Details ID: 014909 Name: CENTRAL ARNHEM PLATEAU Lat: -13.33 Lon: 133.09 Height: 416.0 m
Data from the previous 72 hours. | See also: Recent months at Central Arnhem Plateau
Date/Time
CST
Temp
°C
App
Temp
°C
Dew
Point
°C
Rel
Hum
%
Delta-T
°C
Wind Press
QNH
hPa
Press
MSL
hPa
Rain since
9am
mm
Dir  Spd
km/h
Gust
km/h
Spd
kts
Gust
kts
23/02:00pm 33.9 31.5 12.8 28 12.9 E 17 26 9 14 1016.0 1013.4 0.0
23/01:30pm 31.9 28.3 11.7 29 12.0 ESE 22 37 12 20 1016.7 1014.0 0.0
23/01:00pm 31.7 28.7 12.0 30 11.8 E 19 33 10 18 1017.1 1014.5 0.0
23/12:30pm 32.1 28.0 12.8 30 11.7 ENE 26 37 14 20 1017.6 1015.0 0.0
23/12:00pm 30.3 26.4 12.2 33 10.8 E 24 35 13 19 1018.0 1015.4 0.0
23/11:30am 30.7 25.5 13.5 35 10.5 E 33 44 18 24 1018.4 1015.8 0.0
23/11:00am 30.0 25.6 14.1 37 9.8 ENE 30 43 16 23 1018.7 1016.1 0.0
23/10:30am 29.8 24.8 13.5 36 9.9 ENE 32 43 17 23 1019.2 1016.6 0.0
23/10:00am 29.4 24.8 13.6 38 9.6 ENE 30 44 16 24 1019.5 1016.9 0.0
23/09:30am 28.7 24.1 13.4 39 9.2 E 30 44 16 24 1019.5 1016.9 0.0
23/09:00am 27.7 24.9 14.3 43 8.2 E 22 35 12 19 1019.6 1017.0 0.0
23/08:30am 24.9 24.4 16.9 61 5.0 ESE 15 20 8 11 1019.4 1016.8 0.0
23/08:00am 22.7 22.4 16.5 68 3.8 ESE 13 17 7 9 1019.2 1016.6 0.0
23/07:30am 22.1 21.8 16.4 70 3.5 ESE 13 15 7 8 1019.0 1016.3 0.0
23/07:00am 21.7 21.7 16.2 71 3.4 ESE 11 15 6 8 1018.6 1016.0 0.0
23/06:30am 21.8 21.7 16.1 70 3.5 ESE 11 15 6 8 1018.4 1015.8 0.0
23/06:00am 21.8 21.7 16.1 70 3.5 ESE 11 13 6 7 1017.9 1015.3 0.0
23/05:30am 22.2 22.1 16.0 68 3.8 ESE 11 13 6 7 1017.5 1014.9 0.0
23/05:00am 22.5 22.4 16.1 67 3.9 E 11 15 6 8 1017.2 1014.6 0.0
23/04:30am 23.0 22.6 16.3 66 4.1 ESE 13 15 7 8 1017.1 1014.5 0.0
23/04:00am 22.9 22.9 16.2 66 4.1 SE 11 13 6 7 1017.0 1014.4 0.0
23/03:30am 23.1 23.0 15.9 64 4.4 ESE 11 13 6 7 1017.1 1014.5 0.0
23/03:00am 23.5 23.8 16.1 63 4.6 ESE 9 13 5 7 1017.1 1014.5 0.0
23/02:30am 24.1 24.4 16.1 61 4.9 ESE 9 11 5 6 1017.2 1014.6 0.0
23/02:00am 24.4 24.7 16.1 60 5.1 E 9 11 5 6 1017.6 1015.0 0.0
23/01:30am 24.7 25.1 16.2 59 5.3 ESE 9 11 5 6 1017.8 1015.2 0.0
23/01:00am 25.1 24.7 16.3 58 5.5 E 13 17 7 9 1018.3 1015.7 0.0
23/12:30am 25.5 24.3 16.1 56 5.8 E 17 22 9 12 1018.6 1016.0 0.0
23/12:00am 25.8 25.0 16.1 55 6.0 E 15 22 8 12 1019.0 1016.3 0.0
 
Date/Time
CST
Temp
°C
App
Temp
°C
Dew
Point
°C
Rel
Hum
%
Delta-T
°C
Wind Press
QNH
hPa
Press
MSL
hPa
Rain since
9am
mm
Dir  Spd
km/h
Gust
km/h
Spd
kts
Gust
kts
22/11:30pm 26.2 24.9 15.9 53 6.4 E 17 22 9 12 1019.1 1016.4 0.0
22/11:00pm 26.7 24.8 15.7 51 6.8 E 20 30 11 16 1019.2 1016.6 0.0
22/10:30pm 27.3 25.6 16.3 51 6.9 E 20 28 11 15 1019.2 1016.6 0.0
22/10:00pm 27.7 25.9 16.0 49 7.3 E 20 30 11 16 1019.2 1016.6 0.0
22/09:30pm 28.0 26.4 16.0 48 7.5 E 19 26 10 14 1019.0 1016.3 0.0
22/09:00pm 28.6 26.5 15.2 44 8.3 E 20 30 11 16 1018.6 1016.0 0.0
22/08:30pm 29.0 26.8 14.4 41 9.0 E 19 26 10 14 1018.2 1015.6 0.0
22/08:00pm 29.4 26.6 14.4 40 9.2 E 22 30 12 16 1017.8 1015.2 0.0
22/07:30pm 29.9 27.4 14.0 37 9.7 E 20 30 11 16 1017.3 1014.7 0.0
22/07:00pm 30.5 28.4 12.4 33 10.8 E 15 20 8 11 1016.8 1014.1 0.0
22/06:30pm 30.7 28.9 12.1 32 11.1 E 13 17 7 9 1016.2 1013.6 0.0
22/06:00pm 31.1 29.3 12.0 31 11.4 E 13 17 7 9 1015.9 1013.3 0.0
22/05:30pm 31.4 29.6 12.2 30 11.5 E 13 19 7 10 1015.6 1013.0 0.0
22/05:00pm 31.7 29.5 12.0 30 11.8 E 15 20 8 11 1015.3 1012.7 0.0
22/04:30pm 32.0 29.2 11.2 28 12.3 E 17 22 9 12 1015.1 1012.5 0.0
22/04:00pm 32.2 28.8 11.4 28 12.4 NE 20 24 11 13 1015.1 1012.5 0.0
22/03:30pm 32.7 30.8 11.8 28 12.5 ESE 13 20 7 11 1015.2 1012.6 0.0
22/03:00pm 33.4 32.1 12.4 28 12.7 E 11 19 6 10 1015.3 1012.7 0.0
22/02:30pm 33.2 30.5 11.7 27 12.9 ENE 17 26 9 14 1015.6 1013.0 0.0
22/02:00pm 31.4 28.1 11.7 29 11.7 E 20 35 11 19 1015.9 1013.3 0.0
22/01:30pm 32.8 30.7 12.4 29 12.3 E 15 30 8 16 1016.3 1013.7 0.0
22/01:00pm 32.3 28.4 12.0 29 12.2 ENE 24 35 13 19 1016.9 1014.2 0.0
22/12:30pm 31.3 28.3 12.6 31 11.3 E 20 33 11 18 1017.3 1014.7 0.0
22/12:00pm 31.1 27.3 12.5 32 11.2 ENE 24 41 13 22 1017.9 1015.3 0.0
22/11:30am 30.4 27.2 13.2 35 10.4 ENE 22 35 12 19 1018.4 1015.8 0.0
22/11:00am 29.6 28.0 15.0 41 9.1 E 17 30 9 16 1019.0 1016.3 0.0
22/10:30am 28.9 26.7 14.3 40 8.9 E 19 32 10 17 1019.2 1016.6 0.0
22/10:00am 28.1 27.0 16.4 49 7.4 ENE 17 26 9 14 1019.2 1016.6 0.0
22/09:30am 26.8 25.6 17.0 55 6.2 ENE 19 30 10 16 1019.2 1016.6 0.0
22/09:00am 26.8 26.3 17.8 57 5.8 NE 17 22 9 12 1019.0 1016.3 0.0
22/08:30am 25.5 26.1 18.7 66 4.4 E 13 17 7 9 1019.0 1016.3 0.0
22/08:00am 24.6 26.1 19.0 71 3.6 E 9 13 5 7 1018.7 1016.1 0.0
22/07:30am 23.9 25.9 19.2 75 3.0 ESE 7 9 4 5 1018.3 1015.7 0.0
22/07:00am 22.2 24.4 18.4 79 2.4 E 4 7 2 4 1017.8 1015.2 0.0
22/06:30am 22.1 24.0 18.5 80 2.3 ESE 6 9 3 5 1017.6 1015.0 0.0
22/06:00am 22.3 24.0 18.5 79 2.4 E 7 9 4 5 1017.3 1014.7 0.0
22/05:30am 22.4 24.2 18.4 78 2.5 E 6 7 3 4 1016.9 1014.2 0.0
22/05:00am 22.4 24.2 18.2 77 2.7 NE 6 7 3 4 1016.6 1013.9 0.0
22/04:30am 22.7 24.4 18.5 77 2.7 ENE 7 9 4 5 1016.5 1013.8 0.0
22/04:00am 23.0 24.3 18.5 76 2.9 ENE 9 13 5 7 1016.5 1013.8 0.0
22/03:30am 22.9 24.7 18.2 75 3.0 NE 6 7 3 4 1016.5 1013.8 0.0
22/03:00am 23.0 24.5 18.1 74 3.1 N 7 11 4 6 1016.1 1013.5 0.0
22/02:30am 23.2 24.3 17.9 72 3.4 NE 9 13 5 7 1016.7 1014.0 0.0
22/02:00am 23.5 24.3 17.3 68 3.9 ENE 9 13 5 7 1016.6 1013.9 0.0
22/01:30am 23.8 24.6 17.3 67 4.1 NE 9 13 5 7 1016.8 1014.1 0.0
22/01:00am 23.9 24.4 17.4 67 4.1 NE 11 15 6 8 1016.9 1014.2 0.0
22/12:30am 24.4 24.5 17.4 65 4.4 NE 13 19 7 10 1017.0 1014.4 0.0
22/12:00am 24.9 25.1 17.6 64 4.6 NNE 13 20 7 11 1017.1 1014.5 0.0
 
Date/Time
CST
Temp
°C
App
Temp
°C
Dew
Point
°C
Rel
Hum
%
Delta-T
°C
Wind Press
QNH
hPa
Press
MSL
hPa
Rain since
9am
mm
Dir  Spd
km/h
Gust
km/h
Spd
kts
Gust
kts
21/11:30pm 25.0 26.1 18.0 65 4.5 NE 9 13 5 7 1017.0 1014.4 0.0
21/11:00pm 25.0 25.9 17.5 63 4.8 NNE 9 11 5 6 1016.7 1014.0 0.0
21/10:30pm 26.0 26.4 18.2 62 5.0 NW 13 17 7 9 1016.5 1013.8 0.0
21/10:00pm 26.4 26.4 18.0 60 5.4 NW 15 20 8 11 1016.3 1013.7 0.0
21/09:30pm 27.0 27.0 17.2 55 6.2 NW 13 17 7 9 1016.0 1013.4 0.0
21/09:00pm 26.3 25.9 9.6 35 9.4 E 2 9 1 5 1015.6 1013.0 0.0
21/08:30pm 27.3 26.1 9.6 33 10.0 E 6 6 3 3 1015.3 1012.7 0.0
21/08:00pm 28.5 26.8 9.7 31 10.7 ESE 9 11 5 6 1015.1 1012.5 0.0
21/07:30pm 29.6 28.2 9.7 29 11.4 E 7 9 4 5 1014.8 1012.2 0.0
21/07:00pm 30.3 28.6 9.8 28 11.8 E 9 11 5 6 1014.6 1011.9 0.0
21/06:30pm 31.2 29.0 9.4 26 12.5 E 11 15 6 8 1014.3 1011.6 0.0
21/06:00pm 32.0 29.3 8.9 24 13.2 E 13 19 7 10 1014.0 1011.3 0.0
21/05:30pm 32.3 28.7 8.5 23 13.5 E 17 22 9 12 1013.6 1011.0 0.0
21/05:00pm 33.0 29.4 8.5 22 14.0 ENE 17 22 9 12 1013.5 1010.9 0.0
21/04:30pm 32.8 30.3 8.3 22 13.9 SSE 11 20 6 11 1013.3 1010.7 0.0
21/04:00pm 33.8 30.9 9.8 23 14.0 SSE 15 24 8 13 1013.5 1010.9 0.0
21/03:30pm 33.7 32.3 9.7 23 14.0 NE 7 15 4 8 1013.6 1011.0 0.0
21/03:00pm 32.3 29.3 9.2 24 13.3 E 15 24 8 13 1014.0 1011.3 0.0
21/02:30pm 32.2 30.1 9.7 25 13.0 E 11 20 6 11 1014.4 1011.7 0.0
21/02:00pm 31.3 28.9 10.1 27 12.3 E 13 22 7 12 1014.7 1012.0 0.0
21/01:30pm 32.4 30.4 12.6 30 12.0 ENE 15 24 8 13 1015.1 1012.5 0.0
21/01:00pm 29.9 27.9 11.4 32 10.9 ENE 13 22 7 12 1015.6 1013.0 0.0
21/12:30pm 30.0 27.5 11.0 31 11.1 E 15 24 8 13 1016.1 1013.5 0.0
21/12:00pm 30.5 29.5 14.6 38 9.8 E 13 24 7 13 1016.7 1014.0 0.0
21/11:30am 29.0 27.8 14.0 39 9.1 NE 13 20 7 11 1017.1 1014.5 0.0
21/11:00am 28.4 26.7 14.6 43 8.5 ENE 17 26 9 14 1017.5 1014.9 0.0
21/10:30am 28.3 27.7 15.6 46 7.9 ENE 13 22 7 12 1017.8 1015.2 0.0
21/10:00am 27.0 27.8 17.2 55 6.2 ENE 9 19 5 10 1017.9 1015.3 0.0
21/09:30am 25.5 25.4 16.9 59 5.4 NE 13 26 7 14 1018.0 1015.4 0.0
21/09:00am 24.7 24.4 17.4 64 4.6 NE 15 20 8 11 1017.9 1015.3 0.0
21/08:30am 24.2 24.4 17.7 67 4.1 NE 13 20 7 11 1017.8 1015.2 0.0
21/08:00am 22.6 22.6 17.1 71 3.4 NE 13 19 7 10 1017.6 1015.0 0.0
21/07:30am 21.7 22.8 16.6 73 3.2 NNE 6 9 3 5 1017.3 1014.7 0.0
21/07:00am 20.8 22.7 16.8 78 2.5 N 2 6 1 3 1017.1 1014.5 0.0
21/06:30am 20.2 21.0 16.4 79 2.3 NNW 7 7 4 4 1016.6 1013.9 0.0
21/06:00am 20.3 21.0 16.1 77 2.6 N 7 9 4 5 1016.2 1013.6 0.0
21/05:30am 20.4 21.0 15.8 75 2.8 N 7 9 4 5 1016.0 1013.4 0.0
21/05:00am 20.6 21.2 15.8 74 2.9 NNE 7 9 4 5 1015.9 1013.3 0.0
21/04:30am 20.8 21.3 15.6 72 3.2 N 7 9 4 5 1015.6 1013.0 0.0
21/04:00am 20.8 20.9 15.6 72 3.2 N 9 11 5 6 1015.4 1012.8 0.0
21/03:30am 21.0 21.4 15.3 70 3.4 N 7 9 4 5 1015.4 1012.8 0.0
21/03:00am 21.2 21.6 14.8 67 3.8 N 6 9 3 5 1015.3 1012.7 0.0
21/02:30am 21.0 22.3 14.2 65 4.0 CALM 0 6 0 3 1015.3 1012.7 0.0
21/02:00am 21.8 22.2 14.7 64 4.3 N 6 7 3 4 1015.4 1012.8 0.0
21/01:30am 21.9 22.1 14.8 64 4.3 N 7 9 4 5 1015.4 1012.8 0.0
21/01:00am 22.3 22.7 15.4 65 4.2 NE 7 9 4 5 1015.5 1012.9 0.0
21/12:30am 23.1 23.0 15.9 64 4.4 ENE 11 15 6 8 1015.9 1013.3 0.0
21/12:00am 23.8 24.5 16.1 62 4.8 NNW 7 9 4 5 1015.6 1013.0 0.0
 
Date/Time
CST
Temp
°C
App
Temp
°C
Dew
Point
°C
Rel
Hum
%
Delta-T
°C
Wind Press
QNH
hPa
Press
MSL
hPa
Rain since
9am
mm
Dir  Spd
km/h
Gust
km/h
Spd
kts
Gust
kts
20/11:30pm 24.2 24.5 15.9 59 5.1 NNW 9 11 5 6 1015.5 1012.9 0.0
20/11:00pm 24.8 25.1 16.0 58 5.5 NNW 9 13 5 7 1015.6 1013.0 0.0
20/10:30pm 25.3 25.2 15.9 56 5.8 NNW 11 15 6 8 1015.9 1013.3 0.0
20/10:00pm 25.8 25.6 15.8 54 6.2 NW 11 15 6 8 1015.7 1013.1 0.0
20/09:30pm 26.2 25.8 15.3 51 6.7 NNW 11 17 6 9 1015.4 1012.8 0.0
20/09:00pm 26.5 24.4 11.0 38 8.9 NNW 13 19 7 10 1015.1 1012.5 0.0
20/08:30pm 26.4 24.0 4.2 24 11.4 W 6 9 3 5 1014.5 1011.8 0.0
20/08:00pm 26.1 24.5 2.7 22 11.6 CALM 0 0 0 0 1014.2 1011.5 0.0
20/07:30pm 28.0 26.4 2.2 19 12.9 CALM 0 6 0 3 1013.9 1011.2 0.0
20/07:00pm 29.6 26.7 2.8 18 13.7 ENE 7 9 4 5 1013.5 1010.9 0.0
20/06:30pm 31.6 28.2 1.8 15 15.1 E 9 11 5 6 1013.4 1010.8 0.0
20/06:00pm 32.2 28.7 1.3 14 15.6 N 9 11 5 6 1013.3 1010.7 0.0
20/05:30pm 33.2 30.2 2.1 14 16.0 NW 7 9 4 5 1013.0 1010.4 0.0
20/05:00pm 33.2 30.8 2.1 14 16.0 WSW 4 9 2 5 1012.8 1010.2 0.0
20/04:30pm 33.6 30.7 1.4 13 16.4 ENE 6 15 3 8 1012.6 1009.9 0.0
20/04:00pm 32.7 29.3 1.7 14 15.8 ESE 9 20 5 11 1012.6 1009.9 0.0
20/03:30pm 33.7 29.5 1.5 13 16.5 ESE 13 24 7 13 1012.7 1010.1 0.0
20/03:00pm 33.1 29.7 2.1 14 16.0 NNE 9 19 5 10 1013.0 1010.4 0.0
20/02:30pm 32.4 28.3 2.5 15 15.4 ESE 13 22 7 12 1013.4 1010.8 0.0

Other formats

Comma delimited format used in spreadsheet applications
http://www.bom.gov.au/fwo/IDD60801/IDD60801.94141.axf

JavaScript Object Notation format (JSON) in row-major order
http://www.bom.gov.au/fwo/IDD60801/IDD60801.94141.json

Data quality

Most of these data are generated automatically and are frequently updated. Quality checks on data are not normally performed. It is possible for incorrect values to appear. Refer to information at About Latest Weather Observations and please check the disclaimer before using these data.